createdAt,value
2017-08-19T00:00:54.946Z,1013.83
2017-08-19T00:01:56.831Z,1013.75
2017-08-19T00:02:58.652Z,1013.73
2017-08-19T00:04:00.482Z,1013.69
2017-08-19T00:05:02.367Z,1013.76
2017-08-19T00:06:04.208Z,1013.98
2017-08-19T00:07:06.032Z,1014.17
2017-08-19T00:08:20.192Z,1014.26
2017-08-19T00:09:22.073Z,1014.40
2017-08-19T00:10:23.960Z,1014.51
2017-08-19T00:11:25.853Z,1014.63
2017-08-19T00:12:27.676Z,1014.74
2017-08-19T00:13:29.506Z,1014.84
2017-08-19T00:14:31.398Z,1014.87
2017-08-19T00:15:33.277Z,1014.86
2017-08-19T00:16:35.171Z,1014.90
2017-08-19T00:17:49.334Z,1014.87
2017-08-19T00:18:51.227Z,1014.88
2017-08-19T00:19:53.124Z,1014.86
2017-08-19T00:20:55.011Z,1014.86
2017-08-19T00:21:56.833Z,1014.80
2017-08-19T00:22:58.674Z,1014.79
2017-08-19T00:24:00.555Z,1014.75
2017-08-19T00:25:02.439Z,1014.73
2017-08-19T00:26:04.325Z,1014.61
2017-08-19T00:27:18.490Z,1014.51
2017-08-19T00:28:20.384Z,1014.51
2017-08-19T00:29:22.279Z,1014.41
2017-08-19T00:30:24.166Z,1014.29
2017-08-19T00:31:25.987Z,1014.22
2017-08-19T00:32:27.815Z,1014.10
2017-08-19T00:33:29.698Z,1014.08
2017-08-19T00:34:31.586Z,1014.06
2017-08-19T00:35:33.470Z,1014.09
2017-08-19T00:36:47.683Z,1014.06
2017-08-19T00:37:49.564Z,1014.05
2017-08-19T00:38:51.466Z,1014.08
2017-08-19T00:39:53.348Z,1014.08
2017-08-19T00:40:55.173Z,1014.03
2017-08-19T00:41:57.010Z,1013.99
2017-08-19T00:42:58.894Z,1014.05
2017-08-19T00:44:00.780Z,1014.18
2017-08-19T00:45:02.668Z,1014.39
2017-08-19T00:46:16.879Z,1014.44
2017-08-19T00:47:18.762Z,1014.49
2017-08-19T00:48:20.648Z,1014.54
2017-08-19T00:49:22.527Z,1014.60
2017-08-19T00:50:24.362Z,1014.72
2017-08-19T00:51:26.189Z,1014.82
2017-08-19T00:52:28.072Z,1014.90
2017-08-19T00:53:29.956Z,1014.97
2017-08-19T00:54:31.845Z,1015.03
2017-08-19T00:55:46.054Z,1015.08
2017-08-19T00:56:47.936Z,1015.07
2017-08-19T00:57:49.830Z,1015.06
2017-08-19T00:58:51.713Z,1015.03
2017-08-19T00:59:53.537Z,1015.02
2017-08-19T01:00:55.361Z,1015.03
2017-08-19T01:01:57.246Z,1015.11
2017-08-19T01:02:59.128Z,1015.15
2017-08-19T01:04:01.014Z,1015.18
2017-08-19T01:05:15.179Z,1015.20
2017-08-19T01:06:17.073Z,1015.14
2017-08-19T01:07:18.969Z,1015.21
2017-08-19T01:08:20.856Z,1015.19
2017-08-19T01:09:22.696Z,1015.20
2017-08-19T01:10:24.520Z,1015.25
2017-08-19T01:11:26.416Z,1015.29
2017-08-19T01:12:28.300Z,1015.28
2017-08-19T01:13:30.187Z,1015.21
2017-08-19T01:14:44.346Z,1015.19
2017-08-19T01:15:46.239Z,1015.12
2017-08-19T01:16:48.126Z,1015.14
2017-08-19T01:17:50.007Z,1015.14
2017-08-19T01:18:51.829Z,1015.15
2017-08-19T01:19:53.655Z,1015.22
2017-08-19T01:20:55.540Z,1015.26
2017-08-19T01:21:57.423Z,1015.21
2017-08-19T01:22:59.307Z,1015.19
2017-08-19T01:24:13.468Z,1015.17
2017-08-19T01:25:15.351Z,1015.15
2017-08-19T01:26:17.242Z,1015.19
2017-08-19T01:27:19.135Z,1015.22
2017-08-19T01:28:20.971Z,1015.22
2017-08-19T01:29:22.794Z,1015.24
2017-08-19T01:30:24.690Z,1015.27
2017-08-19T01:31:26.575Z,1015.25
2017-08-19T01:32:28.460Z,1015.25
2017-08-19T01:33:42.631Z,1015.22
2017-08-19T01:34:44.514Z,1015.28
2017-08-19T01:35:46.410Z,1015.24
2017-08-19T01:36:48.293Z,1015.22
2017-08-19T01:37:50.119Z,1015.25
2017-08-19T01:38:51.945Z,1015.25
2017-08-19T01:39:53.843Z,1015.35
2017-08-19T01:40:55.727Z,1015.37
2017-08-19T01:41:57.610Z,1015.32
2017-08-19T01:43:11.768Z,1015.36
2017-08-19T01:44:13.651Z,1015.37
2017-08-19T01:45:15.545Z,1015.37
2017-08-19T01:46:17.431Z,1015.40
2017-08-19T01:47:19.255Z,1015.34
2017-08-19T01:48:21.079Z,1015.32
2017-08-19T01:49:22.964Z,1015.36
2017-08-19T01:50:24.859Z,1015.39
2017-08-19T01:51:26.743Z,1015.41
2017-08-19T01:52:40.903Z,1015.40
2017-08-19T01:53:42.789Z,1015.39
2017-08-19T01:54:44.678Z,1015.40
2017-08-19T01:55:46.565Z,1015.42
2017-08-19T01:56:48.392Z,1015.43
2017-08-19T01:57:50.216Z,1015.43
2017-08-19T01:58:52.101Z,1015.44
2017-08-19T01:59:53.986Z,1015.44
2017-08-19T02:00:55.871Z,1015.47
2017-08-19T02:02:10.031Z,1015.50
2017-08-19T02:03:11.915Z,1015.45
2017-08-19T02:04:13.804Z,1015.47
2017-08-19T02:05:15.694Z,1015.48
2017-08-19T02:06:17.519Z,1015.47
2017-08-19T02:07:19.346Z,1015.46
2017-08-19T02:08:21.230Z,1015.49
2017-08-19T02:09:23.114Z,1015.47
2017-08-19T02:10:25.000Z,1015.52
2017-08-19T02:11:39.163Z,1015.47
2017-08-19T02:12:41.047Z,1015.44
2017-08-19T02:13:42.938Z,1015.40
2017-08-19T02:14:44.825Z,1015.42
2017-08-19T02:15:46.651Z,1015.42
2017-08-19T02:16:48.488Z,1015.46
2017-08-19T02:17:50.376Z,1015.45
2017-08-19T02:18:52.266Z,1015.43
2017-08-19T02:19:54.152Z,1015.48
2017-08-19T02:21:08.311Z,1015.46
2017-08-19T02:22:10.208Z,1015.43
2017-08-19T02:23:12.095Z,1015.45
2017-08-19T02:24:13.986Z,1015.40
2017-08-19T02:25:15.821Z,1015.40
2017-08-19T02:26:17.647Z,1015.46
2017-08-19T02:27:19.535Z,1015.47
2017-08-19T02:28:21.423Z,1015.44
2017-08-19T02:29:23.314Z,1015.41
2017-08-19T02:30:37.467Z,1015.40
2017-08-19T02:31:39.363Z,1015.35
2017-08-19T02:32:41.264Z,1015.36
2017-08-19T02:33:43.155Z,1015.37
2017-08-19T02:34:44.985Z,1015.34
2017-08-19T02:35:46.805Z,1015.34
2017-08-19T02:36:48.693Z,1015.39
2017-08-19T02:37:50.591Z,1015.39
2017-08-19T02:38:52.482Z,1015.40
2017-08-19T02:40:06.689Z,1015.45
2017-08-19T02:41:08.575Z,1015.51
2017-08-19T02:42:10.468Z,1015.46
2017-08-19T02:43:12.361Z,1015.52
2017-08-19T02:44:14.182Z,1015.57
2017-08-19T02:45:16.007Z,1015.58
2017-08-19T02:46:17.895Z,1015.56
2017-08-19T02:47:19.782Z,1015.55
2017-08-19T02:48:21.679Z,1015.54
2017-08-19T02:49:35.836Z,1015.61
2017-08-19T02:50:37.717Z,1015.62
2017-08-19T02:51:39.603Z,1015.68
2017-08-19T02:52:41.488Z,1015.72
2017-08-19T02:53:43.313Z,1015.75
2017-08-19T02:54:45.138Z,1015.75
2017-08-19T02:55:47.024Z,1015.69
2017-08-19T02:56:48.908Z,1015.64
2017-08-19T02:57:50.794Z,1015.60
2017-08-19T02:59:04.952Z,1015.61
2017-08-19T03:00:06.837Z,1015.64
2017-08-19T03:01:08.729Z,1015.55
2017-08-19T03:02:10.615Z,1015.58
2017-08-19T03:03:12.440Z,1015.63
2017-08-19T03:04:14.267Z,1015.65
2017-08-19T03:05:16.150Z,1015.61
2017-08-19T03:06:18.035Z,1015.64
2017-08-19T03:07:19.921Z,1015.66
2017-08-19T03:08:34.076Z,1015.64
2017-08-19T03:09:35.974Z,1015.65
2017-08-19T03:10:37.865Z,1015.66
2017-08-19T03:11:39.754Z,1015.67
2017-08-19T03:12:41.578Z,1015.66
2017-08-19T03:13:43.416Z,1015.67
2017-08-19T03:14:45.303Z,1015.67
2017-08-19T03:15:47.190Z,1015.68
2017-08-19T03:16:49.076Z,1015.71
2017-08-19T03:18:03.238Z,1015.73
2017-08-19T03:19:05.125Z,1015.76
2017-08-19T03:20:07.017Z,1015.77
2017-08-19T03:21:08.908Z,1015.77
2017-08-19T03:22:10.729Z,1015.81
2017-08-19T03:23:12.568Z,1015.81
2017-08-19T03:24:14.453Z,1015.84
2017-08-19T03:25:16.343Z,1015.84
2017-08-19T03:26:18.228Z,1015.81
2017-08-19T03:27:32.384Z,1015.87
2017-08-19T03:28:34.269Z,1015.85
2017-08-19T03:29:36.158Z,1015.87
2017-08-19T03:30:38.046Z,1015.87
2017-08-19T03:31:39.869Z,1015.87
2017-08-19T03:32:41.696Z,1015.95
2017-08-19T03:33:43.583Z,1015.94
2017-08-19T03:34:45.469Z,1015.94
2017-08-19T03:35:47.368Z,1015.94
2017-08-19T03:37:01.523Z,1015.97
2017-08-19T03:38:03.416Z,1016.01
2017-08-19T03:39:05.312Z,1016.02
2017-08-19T03:40:07.197Z,1016.13
2017-08-19T03:41:09.042Z,1016.10
2017-08-19T03:42:10.868Z,1016.16
2017-08-19T03:43:12.755Z,1016.18
2017-08-19T03:44:14.638Z,1016.17
2017-08-19T03:45:16.524Z,1016.15
2017-08-19T03:46:30.683Z,1016.15
2017-08-19T03:47:32.565Z,1016.14
2017-08-19T03:48:34.460Z,1016.17
2017-08-19T03:49:36.346Z,1016.17
2017-08-19T03:50:38.173Z,1016.14
2017-08-19T03:51:39.998Z,1016.16
2017-08-19T03:52:41.882Z,1016.14
2017-08-19T03:53:43.766Z,1016.16
2017-08-19T03:54:45.651Z,1016.21
2017-08-19T03:55:59.809Z,1016.20
2017-08-19T03:57:01.693Z,1016.18
2017-08-19T03:58:03.582Z,1016.25
2017-08-19T03:59:05.472Z,1016.22
2017-08-19T04:00:07.294Z,1016.23
2017-08-19T04:01:09.131Z,1016.22
2017-08-19T04:02:11.017Z,1016.23
2017-08-19T04:03:12.902Z,1016.23
2017-08-19T04:04:14.788Z,1016.14
2017-08-19T04:05:28.999Z,1016.20
2017-08-19T04:06:30.881Z,1016.19
2017-08-19T04:07:32.766Z,1016.22
2017-08-19T04:08:34.654Z,1016.24
2017-08-19T04:09:36.481Z,1016.21
2017-08-19T04:10:38.311Z,1016.26
2017-08-19T04:11:40.196Z,1016.28
2017-08-19T04:12:42.084Z,1016.34
2017-08-19T04:13:43.967Z,1016.36
2017-08-19T04:14:58.139Z,1016.40
2017-08-19T04:16:00.024Z,1016.44
2017-08-19T04:17:01.914Z,1016.52
2017-08-19T04:18:03.801Z,1016.58
2017-08-19T04:19:05.627Z,1016.61
2017-08-19T04:20:07.455Z,1016.64
2017-08-19T04:21:09.344Z,1016.64
2017-08-19T04:22:11.231Z,1016.65
2017-08-19T04:23:13.117Z,1016.68
2017-08-19T04:24:27.278Z,1016.62
2017-08-19T04:25:29.163Z,1016.57
2017-08-19T04:26:31.065Z,1016.59
2017-08-19T04:27:32.953Z,1016.59
2017-08-19T04:28:34.795Z,1016.50
2017-08-19T04:29:36.625Z,1016.53
2017-08-19T04:30:38.536Z,1016.50
2017-08-19T04:31:40.424Z,1016.52
2017-08-19T04:32:42.310Z,1016.55
2017-08-19T04:33:56.483Z,1016.60
2017-08-19T04:34:58.371Z,1016.62
2017-08-19T04:36:00.262Z,1016.63
2017-08-19T04:37:02.152Z,1016.60
2017-08-19T04:38:03.982Z,1016.60
2017-08-19T04:39:05.810Z,1016.58
2017-08-19T04:40:07.696Z,1016.55
2017-08-19T04:41:09.585Z,1016.57
2017-08-19T04:42:11.472Z,1016.58
2017-08-19T04:43:25.635Z,1016.56
2017-08-19T04:44:27.520Z,1016.58
2017-08-19T04:45:29.419Z,1016.63
2017-08-19T04:46:31.310Z,1016.70
2017-08-19T04:47:33.138Z,1016.75
2017-08-19T04:48:34.967Z,1016.81
2017-08-19T04:49:36.855Z,1016.84
2017-08-19T04:50:38.742Z,1016.94
2017-08-19T04:51:40.630Z,1016.97
2017-08-19T04:52:54.810Z,1016.92
2017-08-19T04:53:56.690Z,1016.92
2017-08-19T04:54:58.581Z,1016.93
2017-08-19T04:56:00.470Z,1016.95
2017-08-19T04:57:02.302Z,1016.97
2017-08-19T04:58:04.142Z,1016.99
2017-08-19T04:59:06.031Z,1017.00
2017-08-19T05:00:07.917Z,1016.98
2017-08-19T05:01:09.806Z,1017.02
2017-08-19T05:02:23.979Z,1017.07
2017-08-19T05:03:25.865Z,1017.12
2017-08-19T05:04:27.760Z,1017.15
2017-08-19T05:05:29.649Z,1017.18
2017-08-19T05:06:31.479Z,1017.10
2017-08-19T05:07:33.308Z,1017.06
2017-08-19T05:08:35.195Z,1017.06
2017-08-19T05:09:37.084Z,1017.08
2017-08-19T05:10:38.971Z,1017.16
2017-08-19T05:11:53.143Z,1017.21
2017-08-19T05:12:55.028Z,1017.28
2017-08-19T05:13:56.919Z,1017.31
2017-08-19T05:14:58.807Z,1017.32
2017-08-19T05:16:00.635Z,1017.36
2017-08-19T05:17:02.465Z,1017.40
2017-08-19T05:18:04.351Z,1017.35
2017-08-19T05:19:06.239Z,1017.30
2017-08-19T05:20:08.125Z,1017.30
2017-08-19T05:21:22.297Z,1017.33
2017-08-19T05:22:24.184Z,1017.35
2017-08-19T05:23:26.084Z,1017.38
2017-08-19T05:24:27.976Z,1017.38
2017-08-19T05:25:29.806Z,1017.37
2017-08-19T05:26:31.635Z,1017.32
2017-08-19T05:27:33.524Z,1017.22
2017-08-19T05:28:35.410Z,1017.16
2017-08-19T05:29:37.298Z,1017.13
2017-08-19T05:30:51.461Z,1017.14
2017-08-19T05:31:53.348Z,1017.23
2017-08-19T05:32:55.240Z,1017.29
2017-08-19T05:33:57.132Z,1017.40
2017-08-19T05:34:58.960Z,1017.47
2017-08-19T05:36:00.790Z,1017.57
2017-08-19T05:37:02.679Z,1017.61
2017-08-19T05:38:04.567Z,1017.60
2017-08-19T05:39:06.454Z,1017.63
2017-08-19T05:40:20.628Z,1017.57
2017-08-19T05:41:22.514Z,1017.58
2017-08-19T05:42:24.405Z,1017.58
2017-08-19T05:43:26.295Z,1017.64
2017-08-19T05:44:28.123Z,1017.64
2017-08-19T05:45:29.954Z,1017.63
2017-08-19T05:46:31.851Z,1017.69
2017-08-19T05:47:33.737Z,1017.70
2017-08-19T05:48:35.626Z,1017.73
2017-08-19T05:49:49.842Z,1017.77
2017-08-19T05:50:51.728Z,1017.78
2017-08-19T05:51:53.618Z,1017.81
2017-08-19T05:52:55.524Z,1017.82
2017-08-19T05:53:57.352Z,1017.81
2017-08-19T05:54:59.183Z,1017.78
2017-08-19T05:56:01.072Z,1017.81
2017-08-19T05:57:02.962Z,1017.81
2017-08-19T05:58:04.850Z,1017.86
2017-08-19T05:59:19.026Z,1017.89
2017-08-19T06:00:20.914Z,1017.87
2017-08-19T06:01:22.814Z,1017.86
2017-08-19T06:02:24.711Z,1017.88
2017-08-19T06:03:26.543Z,1017.85
2017-08-19T06:04:28.373Z,1017.85
2017-08-19T06:05:30.267Z,1017.86
2017-08-19T06:06:32.156Z,1017.89
2017-08-19T06:07:34.043Z,1017.93
2017-08-19T06:08:48.211Z,1018.00
2017-08-19T06:09:50.097Z,1018.02
2017-08-19T06:10:51.998Z,1018.00
2017-08-19T06:11:53.892Z,1018.06
2017-08-19T06:12:55.720Z,1018.11
2017-08-19T06:13:57.551Z,1018.17
2017-08-19T06:14:59.440Z,1018.15
2017-08-19T06:16:01.330Z,1018.20
2017-08-19T06:17:03.220Z,1018.17
2017-08-19T06:18:17.396Z,1018.13
2017-08-19T06:19:19.284Z,1018.10
2017-08-19T06:20:21.185Z,1018.11
2017-08-19T06:21:23.078Z,1018.09
2017-08-19T06:22:24.907Z,1018.05
2017-08-19T06:23:26.739Z,1018.08
2017-08-19T06:24:28.630Z,1018.10
2017-08-19T06:25:30.522Z,1018.07
2017-08-19T06:26:32.420Z,1018.06
2017-08-19T06:27:46.582Z,1018.11
2017-08-19T06:28:48.472Z,1018.13
2017-08-19T06:29:50.365Z,1018.10
2017-08-19T06:30:52.257Z,1018.09
2017-08-19T06:31:54.086Z,1018.06
2017-08-19T06:32:55.918Z,1018.06
2017-08-19T06:33:57.806Z,1018.06
2017-08-19T06:34:59.697Z,1018.05
2017-08-19T06:36:01.581Z,1018.06
2017-08-19T06:37:15.759Z,1018.04
2017-08-19T06:38:17.646Z,1018.05
2017-08-19T06:39:19.540Z,1018.09
2017-08-19T06:40:21.432Z,1018.09
2017-08-19T06:41:23.266Z,1018.11
2017-08-19T06:42:25.097Z,1018.11
2017-08-19T06:43:26.987Z,1018.10
2017-08-19T06:44:28.876Z,1018.07
2017-08-19T06:45:30.769Z,1018.18
2017-08-19T06:46:44.933Z,1018.27
2017-08-19T06:47:46.821Z,1018.28
2017-08-19T06:48:48.712Z,1018.30
2017-08-19T06:49:50.605Z,1018.32
2017-08-19T06:50:52.435Z,1018.33
2017-08-19T06:51:54.278Z,1018.33
2017-08-19T06:52:56.168Z,1018.37
2017-08-19T06:53:58.061Z,1018.40
2017-08-19T06:54:59.953Z,1018.48
2017-08-19T06:56:14.099Z,1018.49
2017-08-19T06:57:15.940Z,1018.53
2017-08-19T06:58:17.769Z,1018.52
2017-08-19T06:59:19.664Z,1018.54
2017-08-19T07:00:21.555Z,1018.55
2017-08-19T07:01:23.434Z,1018.55
2017-08-19T07:02:25.264Z,1018.54
2017-08-19T07:03:27.097Z,1018.60
2017-08-19T07:04:28.987Z,1018.64
2017-08-19T07:05:43.212Z,1018.60
2017-08-19T07:06:45.101Z,1018.64
2017-08-19T07:07:46.993Z,1018.69
2017-08-19T07:08:48.884Z,1018.67
2017-08-19T07:09:50.730Z,1018.69
2017-08-19T07:10:52.557Z,1018.64
2017-08-19T07:11:54.453Z,1018.65
2017-08-19T07:12:56.342Z,1018.64
2017-08-19T07:13:58.444Z,1018.69
2017-08-19T07:15:13.186Z,1018.71
2017-08-19T07:16:15.125Z,1018.69
2017-08-19T07:17:17.018Z,1018.69
2017-08-19T07:18:18.910Z,1018.73
2017-08-19T07:19:20.742Z,1018.76
2017-08-19T07:20:22.575Z,1018.78
2017-08-19T07:21:24.462Z,1018.76
2017-08-19T07:22:26.354Z,1018.77
2017-08-19T07:23:28.241Z,1018.82
2017-08-19T07:24:42.526Z,1018.85
2017-08-19T07:25:44.392Z,1018.87
2017-08-19T07:26:46.286Z,1018.86
2017-08-19T07:27:48.196Z,1018.84
2017-08-19T07:28:50.038Z,1018.87
2017-08-19T07:29:51.871Z,1018.86
2017-08-19T07:30:53.787Z,1018.81
2017-08-19T07:31:55.676Z,1018.84
2017-08-19T07:32:57.565Z,1018.79
2017-08-19T07:34:11.742Z,1018.86
2017-08-19T07:35:13.632Z,1018.90
2017-08-19T07:36:15.536Z,1018.98
2017-08-19T07:37:17.430Z,1019.07
2017-08-19T07:38:19.264Z,1019.13
2017-08-19T07:39:21.109Z,1019.19
2017-08-19T07:40:23.000Z,1019.27
2017-08-19T07:41:24.896Z,1019.28
2017-08-19T07:42:26.786Z,1019.28
2017-08-19T07:43:40.955Z,1019.26
2017-08-19T07:44:42.845Z,1019.19
2017-08-19T07:45:44.741Z,1019.21
2017-08-19T07:46:46.636Z,1019.22
2017-08-19T07:47:48.470Z,1019.24
2017-08-19T07:48:50.303Z,1019.23
2017-08-19T07:49:52.194Z,1019.21
2017-08-19T07:50:54.083Z,1019.21
2017-08-19T07:51:55.974Z,1019.22
2017-08-19T07:53:10.141Z,1019.19
2017-08-19T07:54:12.031Z,1019.17
2017-08-19T07:55:13.923Z,1019.21
2017-08-19T07:56:15.816Z,1019.27
2017-08-19T07:57:17.646Z,1019.27
2017-08-19T07:58:19.490Z,1019.18
2017-08-19T07:59:21.382Z,1019.13
2017-08-19T08:00:23.272Z,1019.13
2017-08-19T08:01:25.167Z,1019.09
2017-08-19T08:02:39.339Z,1019.16
2017-08-19T08:03:41.228Z,1019.21
2017-08-19T08:04:43.125Z,1019.29
2017-08-19T08:05:45.022Z,1019.32
2017-08-19T08:06:46.859Z,1019.40
2017-08-19T08:07:48.689Z,1019.41
2017-08-19T08:08:50.587Z,1019.50
2017-08-19T08:09:52.480Z,1019.39
2017-08-19T08:10:54.373Z,1019.39
2017-08-19T08:12:08.567Z,1019.38
2017-08-19T08:13:10.452Z,1019.35
2017-08-19T08:14:12.376Z,1019.35
2017-08-19T08:15:15.113Z,1019.38
2017-08-19T08:16:17.385Z,1019.39
2017-08-19T08:17:19.920Z,1019.39
2017-08-19T08:18:21.894Z,1019.43
2017-08-19T08:19:23.817Z,1019.48
2017-08-19T08:20:25.707Z,1019.46
2017-08-19T08:21:39.920Z,1019.54
2017-08-19T08:22:41.876Z,1019.54
2017-08-19T08:23:43.805Z,1019.63
2017-08-19T08:24:45.703Z,1019.67
2017-08-19T08:25:47.553Z,1019.75
2017-08-19T08:26:49.819Z,1019.77
2017-08-19T08:27:51.876Z,1019.78
2017-08-19T08:28:54.177Z,1019.85
2017-08-19T08:29:56.387Z,1019.87
2017-08-19T08:31:10.595Z,1019.87
2017-08-19T08:32:12.531Z,1019.83
2017-08-19T08:33:14.798Z,1019.80
2017-08-19T08:34:16.775Z,1019.86
2017-08-19T08:35:18.613Z,1019.91
2017-08-19T08:36:20.452Z,1019.86
2017-08-19T08:37:22.355Z,1019.88
2017-08-19T08:38:24.287Z,1019.90
2017-08-19T08:39:26.633Z,1019.96
2017-08-19T08:40:40.862Z,1020.02
2017-08-19T08:41:43.170Z,1020.00
2017-08-19T08:42:45.105Z,1019.99
2017-08-19T08:43:47.008Z,1019.94
2017-08-19T08:44:48.905Z,1019.94
2017-08-19T08:45:51.090Z,1019.91
2017-08-19T08:46:53.011Z,1019.93
2017-08-19T08:47:54.912Z,1019.92
2017-08-19T08:48:56.805Z,1019.95
2017-08-19T08:50:10.979Z,1019.96
2017-08-19T08:51:12.882Z,1019.94
2017-08-19T08:52:15.097Z,1019.95
2017-08-19T08:53:17.404Z,1019.97
2017-08-19T08:54:19.263Z,1019.98
2017-08-19T08:55:21.113Z,1020.04
2017-08-19T08:56:22.998Z,1019.98
2017-08-19T08:57:24.893Z,1019.96
2017-08-19T08:58:26.812Z,1019.96
2017-08-19T08:59:40.972Z,1019.93
2017-08-19T09:00:42.875Z,1019.91
2017-08-19T09:01:44.772Z,1019.99
2017-08-19T09:02:46.661Z,1020.02
2017-08-19T09:03:48.498Z,1020.04
2017-08-19T09:04:50.335Z,1020.02
2017-08-19T09:05:52.228Z,1020.10
2017-08-19T09:06:54.133Z,1020.04
2017-08-19T09:07:56.094Z,1020.00
2017-08-19T09:09:10.270Z,1020.04
2017-08-19T09:10:12.506Z,1020.03
2017-08-19T09:11:14.410Z,1019.99
2017-08-19T09:12:16.312Z,1020.00
2017-08-19T09:13:18.151Z,1020.04
2017-08-19T09:14:19.991Z,1020.07
2017-08-19T09:15:22.220Z,1020.08
2017-08-19T09:16:24.123Z,1020.15
2017-08-19T09:17:26.063Z,1020.12
2017-08-19T09:18:40.561Z,1020.14
2017-08-19T09:19:42.467Z,1020.12
2017-08-19T09:20:44.387Z,1020.17
2017-08-19T09:21:46.625Z,1020.17
2017-08-19T09:22:48.474Z,1020.24
2017-08-19T09:23:50.309Z,1020.23
2017-08-19T09:24:52.218Z,1020.25
2017-08-19T09:25:54.193Z,1020.24
2017-08-19T09:26:56.073Z,1020.24
2017-08-19T09:28:10.709Z,1020.29
2017-08-19T09:29:13.009Z,1020.28
2017-08-19T09:30:15.306Z,1020.30
2017-08-19T09:31:17.642Z,1020.30
2017-08-19T09:32:19.581Z,1020.32
2017-08-19T09:33:21.774Z,1020.30
2017-08-19T09:34:23.708Z,1020.27
2017-08-19T09:35:25.610Z,1020.28
2017-08-19T09:36:27.521Z,1020.29
2017-08-19T09:37:41.703Z,1020.27
2017-08-19T09:38:44.104Z,1020.23
2017-08-19T09:39:46.098Z,1020.24
2017-08-19T09:40:47.995Z,1020.26
2017-08-19T09:41:49.855Z,1020.24
2017-08-19T09:42:51.710Z,1020.23
2017-08-19T09:43:53.978Z,1020.22
2017-08-19T09:44:55.902Z,1020.24
2017-08-19T09:45:57.800Z,1020.28
2017-08-19T09:47:11.970Z,1020.30
2017-08-19T09:48:13.861Z,1020.31
2017-08-19T09:49:15.760Z,1020.32
2017-08-19T09:50:18.021Z,1020.37
2017-08-19T09:51:19.903Z,1020.38
2017-08-19T09:52:21.723Z,1020.45
2017-08-19T09:53:23.622Z,1020.41
2017-08-19T09:54:25.569Z,1020.44
2017-08-19T09:55:27.448Z,1020.44
2017-08-19T09:56:41.623Z,1020.48
2017-08-19T09:57:43.532Z,1020.47
2017-08-19T09:58:45.465Z,1020.47
2017-08-19T09:59:47.697Z,1020.46
2017-08-19T10:00:49.547Z,1020.49
2017-08-19T10:01:51.392Z,1020.45
2017-08-19T10:02:53.284Z,1020.45
2017-08-19T10:03:55.190Z,1020.46
2017-08-19T10:04:57.082Z,1020.49
2017-08-19T10:06:11.575Z,1020.47
2017-08-19T10:07:13.478Z,1020.46
2017-08-19T10:08:15.707Z,1020.43
2017-08-19T10:09:17.990Z,1020.40
2017-08-19T10:10:19.840Z,1020.39
2017-08-19T10:11:21.685Z,1020.39
2017-08-19T10:12:23.577Z,1020.41
2017-08-19T10:13:25.474Z,1020.41
2017-08-19T10:14:27.711Z,1020.44
2017-08-19T10:15:41.904Z,1020.46
2017-08-19T10:16:44.131Z,1020.51
2017-08-19T10:17:46.408Z,1020.49
2017-08-19T10:18:48.648Z,1020.42
2017-08-19T10:19:50.848Z,1020.38
2017-08-19T10:20:53.051Z,1020.39
2017-08-19T10:21:55.297Z,1020.43
2017-08-19T10:22:57.564Z,1020.45
2017-08-19T10:23:59.807Z,1020.48
2017-08-19T10:25:14.347Z,1020.47
2017-08-19T10:26:16.586Z,1020.43
2017-08-19T10:27:18.834Z,1020.34
2017-08-19T10:28:20.779Z,1020.33
2017-08-19T10:29:22.955Z,1020.29
2017-08-19T10:30:24.805Z,1020.23
2017-08-19T10:31:27.043Z,1020.20
2017-08-19T10:32:29.400Z,1020.16
2017-08-19T10:33:31.738Z,1020.09
2017-08-19T10:34:46.554Z,1020.01
2017-08-19T10:35:48.813Z,1019.97
2017-08-19T10:36:51.094Z,1019.93
2017-08-19T10:37:53.430Z,1019.95
2017-08-19T10:38:55.858Z,1020.01
2017-08-19T10:39:58.043Z,1020.00
2017-08-19T10:41:00.351Z,1019.98
2017-08-19T10:42:02.601Z,1019.90
2017-08-19T10:43:04.856Z,1019.90
2017-08-19T10:44:19.535Z,1019.89
2017-08-19T10:45:21.895Z,1019.89
2017-08-19T10:46:23.854Z,1019.90
2017-08-19T10:47:26.088Z,1019.94
2017-08-19T10:48:28.268Z,1019.98
2017-08-19T10:49:30.450Z,1020.00
2017-08-19T10:50:32.710Z,1020.01
2017-08-19T10:51:34.986Z,1020.01
2017-08-19T10:52:37.275Z,1020.09
2017-08-19T10:53:51.795Z,1020.11
2017-08-19T10:54:54.068Z,1020.09
2017-08-19T10:55:56.347Z,1020.19
2017-08-19T10:56:58.620Z,1020.25
2017-08-19T10:58:01.050Z,1020.33
2017-08-19T10:59:03.307Z,1020.39
2017-08-19T11:00:05.544Z,1020.41
2017-08-19T11:01:07.782Z,1020.38
2017-08-19T11:02:09.817Z,1020.36
2017-08-19T11:03:24.339Z,1020.40
2017-08-19T11:04:26.612Z,1020.42
2017-08-19T11:05:28.962Z,1020.48
2017-08-19T11:06:31.295Z,1020.47
2017-08-19T11:07:33.522Z,1020.48
2017-08-19T11:08:35.466Z,1020.50
2017-08-19T11:09:37.717Z,1020.52
2017-08-19T11:10:40.026Z,1020.51
2017-08-19T11:11:42.330Z,1020.52
2017-08-19T11:12:56.657Z,1020.51
2017-08-19T11:13:58.961Z,1020.53
2017-08-19T11:15:01.335Z,1020.54
2017-08-19T11:16:03.303Z,1020.57
2017-08-19T11:17:05.488Z,1020.64
2017-08-19T11:18:07.708Z,1020.59
2017-08-19T11:19:09.977Z,1020.47
2017-08-19T11:20:12.354Z,1020.48
2017-08-19T11:21:14.716Z,1020.47
2017-08-19T11:22:28.916Z,1020.49
2017-08-19T11:23:30.818Z,1020.58
2017-08-19T11:24:32.717Z,1020.57
2017-08-19T11:25:34.628Z,1020.57
2017-08-19T11:26:36.462Z,1020.47
2017-08-19T11:27:38.297Z,1020.47
2017-08-19T11:28:40.205Z,1020.43
2017-08-19T11:29:42.137Z,1020.42
2017-08-19T11:30:44.025Z,1020.42
2017-08-19T11:31:58.254Z,1020.36
2017-08-19T11:33:00.148Z,1020.34
2017-08-19T11:34:02.046Z,1020.35
2017-08-19T11:35:03.957Z,1020.36
2017-08-19T11:36:05.799Z,1020.31
2017-08-19T11:37:07.668Z,1020.25
2017-08-19T11:38:09.568Z,1020.21
2017-08-19T11:39:11.470Z,1020.25
2017-08-19T11:40:13.380Z,1020.27
2017-08-19T11:41:27.550Z,1020.31
2017-08-19T11:42:29.450Z,1020.25
2017-08-19T11:43:31.353Z,1020.34
2017-08-19T11:44:33.255Z,1020.36
2017-08-19T11:45:35.082Z,1020.41
2017-08-19T11:46:36.948Z,1020.45
2017-08-19T11:47:38.846Z,1020.47
2017-08-19T11:48:40.745Z,1020.45
2017-08-19T11:49:42.645Z,1020.42
2017-08-19T11:50:56.816Z,1020.38
2017-08-19T11:51:58.716Z,1020.32
2017-08-19T11:53:00.622Z,1020.32
2017-08-19T11:54:02.529Z,1020.40
2017-08-19T11:55:04.364Z,1020.43
2017-08-19T11:56:06.201Z,1020.46
2017-08-19T11:57:08.115Z,1020.44
2017-08-19T11:58:10.027Z,1020.43
2017-08-19T11:59:11.908Z,1020.47
2017-08-19T12:00:26.076Z,1020.48
2017-08-19T12:01:27.994Z,1020.50
2017-08-19T12:02:29.907Z,1020.48
2017-08-19T12:03:31.805Z,1020.45
2017-08-19T12:04:33.633Z,1020.40
2017-08-19T12:05:35.484Z,1020.36
2017-08-19T12:06:37.397Z,1020.34
2017-08-19T12:07:39.296Z,1020.26
2017-08-19T12:08:41.193Z,1020.25
2017-08-19T12:09:55.372Z,1020.15
2017-08-19T12:10:57.285Z,1020.11
2017-08-19T12:11:59.185Z,1020.09
2017-08-19T12:13:01.091Z,1020.09
2017-08-19T12:14:02.923Z,1020.15
2017-08-19T12:15:04.782Z,1020.18
2017-08-19T12:16:06.678Z,1020.18
2017-08-19T12:17:08.642Z,1020.19
2017-08-19T12:18:10.533Z,1020.22
2017-08-19T12:19:24.772Z,1020.25
2017-08-19T12:20:26.677Z,1020.23
2017-08-19T12:21:28.582Z,1020.21
2017-08-19T12:22:30.479Z,1020.24
2017-08-19T12:23:32.326Z,1020.27
2017-08-19T12:24:34.174Z,1020.25
2017-08-19T12:25:36.085Z,1020.30
2017-08-19T12:26:37.975Z,1020.31
2017-08-19T12:27:39.879Z,1020.33
2017-08-19T12:28:54.172Z,1020.38
2017-08-19T12:29:56.070Z,1020.41
2017-08-19T12:30:57.965Z,1020.41
2017-08-19T12:31:59.877Z,1020.43
2017-08-19T12:33:02.220Z,1020.44
2017-08-19T12:34:04.079Z,1020.42
2017-08-19T12:35:05.983Z,1020.45
2017-08-19T12:36:07.885Z,1020.44
2017-08-19T12:37:09.781Z,1020.43
2017-08-19T12:38:23.957Z,1020.44
2017-08-19T12:39:25.862Z,1020.44
2017-08-19T12:40:27.758Z,1020.40
2017-08-19T12:41:29.665Z,1020.36
2017-08-19T12:42:31.509Z,1020.29
2017-08-19T12:43:33.355Z,1020.30
2017-08-19T12:44:35.265Z,1020.26
2017-08-19T12:45:37.161Z,1020.23